首页
METAR-TAF:

METAR-TAF

机场 :

Greer, 南卡罗来纳州, 美国

纬度: 34-53-02N, 经度: 082-13-15W, 海拔: 296米

当前天气观测

该预报发布于36分钟前的00:19 UTC
风速5节,风向东转东北
温度 21°C
湿度 78%
气压 1019 hPa
能見度: 16.1公里
少量云层高于2400英尺
阴天层高于12000英尺

METAR: KGSP 270019Z 06005KT 10SM FEW024 OVC120 21/17 A3009 RMK AO2 T02110172

时间: 20:55 (00:55 UTC)

预报

该预报发布于1小时和32分钟前的23:23 UTC
预报有效从27日的 00点(UTC)到 27日的 24点(UTC)
风速7节,风向
能見度: 10公里
少量云层高于2200英尺
多云层高于3000英尺
从 27日的 0400点(UTC)
风速6节,风向东北
能見度: 10公里
阴天层高于1700英尺
从 27日的 1000点(UTC)
风速7节,风向东北
能見度: 9.7公里
阴天层高于500英尺
小阵雨, 轻雾
从 27日的 1700点(UTC)
风速9节,风向东北,有时为17节阵风
能見度: 10公里
阴天层高于1200英尺
小阵雨
从 27日的 2200点(UTC)
风速8节,风向东北
能見度: 10公里
阴天层高于2600英尺
小阵雨

TAF: KGSP 262323Z 2700/2724 09007KT P6SM FEW022 BKN030 FM270400 05006KT P6SM OVC017 FM271000 05007KT 6SM -SHRA BR OVC005 FM271700 05009G17KT P6SM -SHRA OVC012 FM272200 04008KT P6SM -SHRA OVC026

超过4000个机场的气象观测和天气预报(METAR&TAF报告)。

可查询的气象台以黄色和红色小点在地图上表示。

将鼠标移到小点上方,可查看气象台名称。

然后点击查看天气观测和预报。

如需切换地图:点击带黑十字的绿色按钮放大地图;点击带横线的绿色按钮缩小地图;或者点击绿色箭头查看邻近地区的地图。


METAR-TAF: